ADDS METAR Data INFO
IDs: Format: Raw Decoded Include TAF

Data at: 2320 UTC 15 Jul 2018

KY63 152315Z AUTO 32006KT 10SM CLR 22/14 A3004 RMK AO2 T02170136
KY63 152255Z AUTO 31007KT 10SM CLR 22/14 A3005 RMK AO2 T02200136
KY63 152235Z AUTO 31009KT 10SM CLR 22/14 A3005 RMK AO2 T02170136
KY63 152215Z AUTO 31008KT 10SM CLR 22/14 A3006 RMK AO2 T02180143
KY63 152155Z AUTO 30007KT 10SM CLR 22/15 A3006 RMK AO2 T02160150
KY63 152135Z AUTO 30009KT 10SM CLR 21/15 A3006 RMK AO2 T02120146
KY63 152115Z AUTO 30007KT 10SM CLR 21/14 A3006 RMK AO2 T02120137
KY63 152055Z AUTO 29009KT 10SM CLR 21/14 A3006 RMK AO2 T02120139
KY63 152035Z AUTO 29009KT 280V350 10SM CLR 21/14 A3006 RMK AO2 T02110135
KY63 152015Z AUTO 30010KT 280V350 10SM CLR 21/13 A3006 RMK AO2 T02120131
KY63 151955Z AUTO 30010KT 10SM CLR 21/13 A3006 RMK AO2 T02100133
KY63 151935Z AUTO 31010G14KT 280V360 10SM CLR 21/14 A3006 RMK AO2 T02100137
KY63 151915Z AUTO 31012G15KT 280V340 10SM CLR 22/15 A3005 RMK AO2 T02180145
KY63 151855Z AUTO 36009G16KT 10SM CLR 21/14 A3005 RMK AO2 T02100143
KY63 151835Z AUTO 33010G15KT 10SM CLR 20/14 A3005 RMK AO2 T02010142
KY63 151815Z AUTO 36013G18KT 10SM CLR 19/14 A3004 RMK AO2 T01930136
KY63 151755Z AUTO 33011KT 300V360 10SM CLR 19/14 A3004 RMK AO2 60002 T01900142 10205 20162
KY63 151735Z AUTO 35011G18KT 300V010 10SM CLR 19/14 A3005 RMK AO2 T01870140
KY63 151715Z AUTO 33010G16KT 290V360 10SM CLR 19/14 A3005 RMK AO2 T01850141
KY63 151655Z AUTO 30011G16KT 280V340 10SM CLR 18/15 A3005 RMK AO2 T01840145
KY63 151635Z AUTO 29010KT 10SM SCT100 18/15 A3006 RMK AO2 T01760151
KY63 151615Z AUTO 29008KT 10SM BKN110 17/15 A3007 RMK AO2 T01700147
KY63 151555Z AUTO 29010KT 10SM -RA SCT075 SCT100 OVC120 17/15 A3008 RMK AO2 P0001 T01650146
KY63 151535Z AUTO 28016G20KT 10SM -DZ SCT031 BKN100 OVC120 17/16 A3007 RMK AO2 P0001 T01680155
KY63 151515Z AUTO 29014G18KT 10SM -RA SCT021 OVC029 17/16 A3007 RMK AO2 LTG DSNT E AND SW T01710161
KY63 151455Z AUTO 31011G18KT 260V330 10SM -DZ SCT012 OVC019 17/16 A3008 RMK AO2 P0001 60001 T01690164
KY63 151435Z AUTO 31011G14KT 260V330 10SM -RA OVC015 18/17 A3005 RMK AO2 P0001 T01790174
KY63 151415Z AUTO 31010G14KT 10SM RA BKN013 19/17 A3003 RMK AO2 T01860171
KY63 151356Z AUTO 31011G16KT 280V360 10SM BKN011 BKN060 20/17 A3000 RMK AO2 T01960168
KY63 151335Z AUTO 29015KT 10SM BKN009 OVC060 20/18 A3001 RMK AO2 T02020184
KY63 151315Z AUTO 30010KT 10SM SCT007 SCT033 SCT039 20/19 A3001 RMK AO2 LTG DSNT SW THRU NW T02010193
KY63 151255Z AUTO 32007KT 10SM SCT039 SCT090 20/19 A2999 RMK AO2 LTG DSNT W AND NW T02000191
KY63 151235Z AUTO 22008KT 10SM SCT090 20/19 A2999 RMK AO2 T02020191
KY63 151215Z AUTO 24005KT 10SM SCT090 20/19 A2999 RMK AO2 T01980189
KY63 151155Z AUTO 22006KT 10SM CLR 19/19 A2997 RMK AO2 T01940188 10205 20177
KY63 151135Z AUTO 23005KT 10SM CLR 19/18 A2999 RMK AO2 T01870183
KY63 151115Z AUTO 24003KT 10SM CLR 19/18 A2999 RMK AO2 T01850180
KY63 151055Z AUTO 26005KT 10SM CLR 18/18 A2999 RMK AO2 T01840181
KY63 151035Z AUTO 26005KT 10SM CLR 18/18 A2999 RMK AO2 T01820179
KY63 151015Z AUTO 22003KT 10SM CLR 18/18 A2999 RMK AO2 T01810178
KY63 150955Z AUTO 20005KT 10SM CLR 19/18 A2999 RMK AO2 T01850180
KY63 150935Z AUTO 24004KT 10SM CLR 19/18 A2998 RMK AO2 T01900184
KY63 150915Z AUTO 25006KT 10SM SCT095 20/19 A2999 RMK AO2 T01950187
KY63 150855Z AUTO 18006KT 10SM BKN095 19/19 A2998 RMK AO2 T01920185
KY63 150835Z AUTO 18005KT 10SM SCT095 19/18 A2999 RMK AO2 T01870182
KY63 150815Z AUTO 19004KT 10SM CLR 19/18 A2999 RMK AO2 T01850177
KY63 150755Z AUTO 17005KT 10SM CLR 18/18 A2999 RMK AO2 T01820178
KY63 150735Z AUTO 23003KT 10SM CLR 19/18 A3000 RMK AO2 T01900179
KY63 150715Z AUTO 00000KT 10SM CLR 20/18 A3000 RMK AO2 T01970183
KY63 150655Z AUTO 17007KT 10SM CLR 20/19 A2998 RMK AO2 T02000185
KY63 150636Z AUTO 17006KT 10SM CLR 21/19 A2998 RMK AO2 T02050190
KY63 150615Z AUTO 17008KT 10SM CLR 20/19 A2999 RMK AO2 T01960185
KY63 150555Z AUTO 17006KT 10SM CLR 20/19 A2999 RMK AO2 T01970185 10272 20196 402900171
KY63 150536Z AUTO 17006KT 10SM CLR 20/19 A3000 RMK AO2 T01970185
KY63 150515Z AUTO 16007KT 10SM CLR 20/19 A3000 RMK AO2 T01980186
KY63 150455Z AUTO 16007KT 10SM CLR 20/19 A3001 RMK AO2 T02000187
KY63 150435Z AUTO 16007KT 10SM CLR 20/19 A3000 RMK AO2 T02020188
KY63 150416Z AUTO 16006KT 10SM CLR 20/19 A3000 RMK AO2 T02020190
KY63 150415Z AUTO 16006KT 10SM CLR 20/19 A3000 RMK AO2 T02030190
KY63 150355Z AUTO 16007KT 10SM CLR 21/19 A3000 RMK AO2 T02050190
KY63 150336Z AUTO 17007KT 10SM CLR 21/19 A2999 RMK AO2 T02070191
KY63 150335Z AUTO 17007KT 10SM CLR 21/19 A2999 RMK AO2 T02070191
KY63 150315Z AUTO 17007KT 10SM CLR 21/19 A2999 RMK AO2 T02060192
KY63 150255Z AUTO 17005KT 10SM CLR 21/20 A2999 RMK AO2 T02100196
KY63 150236Z AUTO 16006KT 10SM CLR 21/19 A2997 RMK AO2 T02050191
KY63 150235Z AUTO 15006KT 10SM CLR 21/19 A2997 RMK AO2 T02050190
KY63 150215Z AUTO 15005KT 10SM CLR 21/19 A2997 RMK AO2 T02100192
KY63 150155Z AUTO 17006KT 10SM CLR 22/20 A2997 RMK AO2 T02170196
KY63 150136Z AUTO 19005KT 10SM CLR 23/20 A2998 RMK AO2 T02310200
KY63 150135Z AUTO 19005KT 10SM CLR 23/20 A2998 RMK AO2 T02310200
KY63 150115Z AUTO 17005KT 7SM CLR 25/21 A2997 RMK AO2 T02500206
KY63 150055Z AUTO 18006KT 5SM HZ CLR 26/20 A2998 RMK AO2 T02600201
KY63 150036Z AUTO 18005KT 5SM HZ CLR 27/20 A2999 RMK AO2 T02670199
KY63 150035Z AUTO 17005KT 5SM HZ CLR 27/20 A2999 RMK AO2 T02670200
KY63 150015Z AUTO 18006KT 5SM HZ CLR 27/19 A2999 RMK AO2 T02710193
KY63 142355Z AUTO 19008KT 5SM HZ CLR 27/19 A2999 RMK AO2 T02740189 10290 20274
KY63 142335Z AUTO 19007KT 5SM HZ CLR 28/19 A2999 RMK AO2 T02780190
KY63 142315Z AUTO 17008KT 4SM HZ CLR 28/20 A2999 RMK AO2 T02810196
KY63 142255Z AUTO 18008KT 5SM HZ CLR 28/19 A3000 RMK AO2 T02830193
KY63 142235Z AUTO 18007KT 4SM HZ SCT049 29/19 A3001 RMK AO2 T02850191
KY63 142215Z AUTO 20006KT 4SM HZ SCT049 29/19 A3001 RMK AO2 T02860194
KY63 142155Z AUTO 19008KT 4SM HZ SCT049 29/19 A3001 RMK AO2 T02880192
KY63 142135Z AUTO 19007KT 5SM HZ CLR 29/19 A3002 RMK AO2 T02880193
KY63 142115Z AUTO 18009KT 4SM HZ SCT050 29/19 A3002 RMK AO2 T02890191
KY63 142055Z AUTO 19007KT 5SM HZ SCT048 29/19 A3002 RMK AO2 T02880190
KY63 142035Z AUTO 19009KT 5SM HZ BKN048 28/19 A3002 RMK AO2 T02840193
KY63 142015Z AUTO 17009KT 4SM HZ SCT048 29/20 A3003 RMK AO2 T02880196
KY63 141955Z AUTO 20006KT 4SM HZ SCT048 29/20 A3003 RMK AO2 T02900200
KY63 141935Z AUTO 17007KT 130V190 4SM HZ SCT046 SCT050 29/19 A3003 RMK AO2 T02880192
KY63 141915Z AUTO 19006KT 5SM HZ SCT044 SCT050 29/19 A3004 RMK AO2 T02850194
KY63 141855Z AUTO 20007KT 7SM SCT044 29/20 A3004 RMK AO2 T02850201
KY63 141835Z AUTO 20007KT 100V230 4SM HZ SCT044 28/20 A3005 RMK AO2 T02820195
KY63 141816Z AUTO 19008KT 5SM HZ SCT044 28/19 A3005 RMK AO2 T02810191
KY63 141755Z AUTO 13004KT 4SM HZ SCT040 SCT045 28/19 A3006 RMK AO2 T02760189 10277 20203
KY63 141735Z AUTO 20005KT 4SM HZ SCT040 SCT045 28/19 A3006 RMK AO2 T02750192
KY63 141715Z AUTO 13004KT 4SM HZ SCT036 28/20 A3006 RMK AO2 T02750197
KY63 141655Z AUTO 24003KT 5SM HZ CLR 27/19 A3006 RMK AO2 T02700191
KY63 141635Z AUTO 24004KT 4SM HZ CLR 27/19 A3006 RMK AO2 T02680192
KY63 141615Z AUTO 00000KT 5SM HZ CLR 27/19 A3006 RMK AO2 T02650189
KY63 141555Z AUTO 24003KT 4SM HZ CLR 26/20 A3007 RMK AO2 T02600200
KY63 141535Z AUTO 26004KT 4SM HZ CLR 26/21 A3007 RMK AO2 T02630211
KY63 141515Z AUTO 00000KT 5SM HZ CLR 26/20 A3007 RMK AO2 T02560202
KY63 141455Z AUTO 24003KT 7SM CLR 25/20 A3007 RMK AO2 T02510202
KY63 141435Z AUTO 23003KT 7SM CLR 25/20 A3007 RMK AO2 T02470197
KY63 141415Z AUTO 22005KT 10SM CLR 25/20 A3008 RMK AO2 T02460199
KY63 141355Z AUTO 00000KT 10SM CLR 24/19 A3008 RMK AO2 T02410194
KY63 141335Z AUTO 00000KT 10SM CLR 23/20 A3008 RMK AO2 T02340197
KY63 141315Z AUTO 00000KT 10SM CLR 23/20 A3008 RMK AO2 T02260198
KY63 141255Z AUTO 00000KT 10SM CLR 22/19 A3008 RMK AO2 T02210189
KY63 141235Z AUTO 00000KT 10SM CLR 21/19 A3008 RMK AO2 T02130188
KY63 141215Z AUTO 00000KT 10SM CLR 21/19 A3008 RMK AO2 T02100190
KY63 141155Z AUTO 00000KT 10SM CLR 20/19 A3007 RMK AO2 T02010186 10215 20171
KY63 141135Z AUTO 00000KT 10SM CLR 18/18 A3007 RMK AO2 T01840179